createdAt,value
2022-08-11T00:04:41.375Z,0.0
2022-08-11T00:09:56.778Z,0.0
2022-08-11T00:14:54.140Z,0.0
2022-08-11T00:20:16.679Z,0.0
2022-08-11T00:25:20.967Z,0.0
2022-08-11T00:30:47.564Z,0.0
2022-08-11T00:35:56.295Z,0.0
2022-08-11T00:40:36.403Z,0.0
2022-08-11T00:45:32.763Z,0.0
2022-08-11T00:50:52.725Z,0.0
2022-08-11T00:56:19.137Z,0.0
2022-08-11T01:01:05.571Z,0.0
2022-08-11T01:06:31.984Z,0.0
2022-08-11T01:11:18.399Z,0.0
2022-08-11T01:16:24.770Z,0.0
2022-08-11T01:21:31.148Z,0.0
2022-08-11T01:26:37.534Z,0.0
2022-08-11T01:31:33.889Z,0.0
2022-08-11T01:36:53.523Z,0.0
2022-08-11T01:41:56.722Z,0.0
2022-08-11T01:47:03.187Z,0.0
2022-08-11T01:52:11.142Z,0.0
2022-08-11T01:57:17.504Z,0.0
2022-08-11T02:02:23.885Z,0.0
2022-08-11T02:07:54.295Z,0.0
2022-08-11T02:12:26.641Z,0.0
2022-08-11T02:17:44.097Z,0.0
2022-08-11T02:22:50.482Z,0.0
2022-08-11T02:27:56.855Z,0.0
2022-08-11T02:33:03.243Z,0.0
2022-08-11T02:38:09.716Z,0.0
2022-08-11T02:43:30.206Z,0.0
2022-08-11T02:48:22.687Z,0.0
2022-08-11T02:53:33.057Z,0.0
2022-08-11T02:58:26.863Z,0.0
2022-08-11T03:03:41.849Z,0.0
2022-08-11T03:08:48.240Z,0.0
2022-08-11T03:13:54.626Z,0.0
2022-08-11T03:19:02.111Z,0.0
2022-08-11T03:24:08.600Z,0.0
2022-08-11T03:29:18.336Z,0.0
2022-08-11T03:34:21.427Z,0.0
2022-08-11T03:39:56.351Z,0.0
2022-08-11T03:44:34.204Z,0.0
2022-08-11T03:49:41.349Z,0.0
2022-08-11T03:55:32.008Z,0.0
2022-08-11T03:59:57.897Z,0.0
2022-08-11T04:05:04.398Z,5.0
2022-08-11T04:10:10.845Z,5.0
2022-08-11T04:15:17.219Z,10.0
2022-08-11T04:20:23.593Z,15.0
2022-08-11T04:25:19.964Z,20.0
2022-08-11T04:30:26.841Z,25.0
2022-08-11T04:35:41.797Z,30.0
2022-08-11T04:40:49.309Z,40.0
2022-08-11T04:45:59.702Z,45.0
2022-08-11T04:51:16.310Z,50.0
2022-08-11T04:56:12.547Z,60.0
2022-08-11T05:01:16.543Z,65.0
2022-08-11T05:06:22.960Z,65.0
2022-08-11T05:11:29.338Z,70.0
2022-08-11T05:16:35.714Z,75.0
2022-08-11T05:21:44.669Z,85.0
2022-08-11T05:26:49.476Z,90.0
2022-08-11T05:32:18.964Z,95.0
2022-08-11T05:37:23.820Z,100.0
2022-08-11T05:41:58.147Z,105.0
2022-08-11T05:47:14.549Z,110.0
2022-08-11T05:53:02.022Z,110.0
2022-08-11T05:58:09.409Z,115.0
2022-08-11T06:03:05.768Z,120.0
2022-08-11T06:08:11.633Z,125.0
2022-08-11T06:13:29.142Z,130.0
2022-08-11T06:18:39.535Z,135.0
2022-08-11T06:30:00.397Z,145.0
2022-08-11T06:35:07.768Z,155.0
2022-08-11T06:40:18.146Z,160.0
2022-08-11T06:45:40.570Z,165.0
2022-08-11T06:57:29.786Z,185.0
2022-08-11T07:02:55.088Z,700.0
2022-08-11T07:07:28.389Z,640.0
2022-08-11T07:12:44.796Z,560.0
2022-08-11T07:17:41.161Z,545.0
2022-08-11T07:22:57.704Z,475.0
2022-08-11T07:27:54.045Z,450.0
2022-08-11T07:33:10.459Z,430.0
2022-08-11T07:38:22.061Z,425.0
2022-08-11T07:44:07.427Z,415.0
2022-08-11T07:49:42.932Z,435.0
2022-08-11T07:53:58.302Z,430.0
2022-08-11T07:58:45.605Z,435.0
2022-08-11T08:03:54.603Z,460.0
2022-08-11T08:08:57.775Z,505.0
2022-08-11T08:14:04.152Z,500.0
2022-08-11T08:19:10.638Z,505.0
2022-08-11T08:24:58.032Z,585.0
2022-08-11T08:41:20.935Z,730.0
2022-08-11T08:46:28.269Z,705.0
2022-08-11T08:51:02.684Z,730.0
2022-08-11T08:56:19.098Z,815.0
2022-08-11T09:01:39.640Z,920.0
2022-08-11T09:06:52.493Z,1055.0
2022-08-11T09:11:38.328Z,1145.0
2022-08-11T09:16:44.711Z,1275.0
2022-08-11T09:22:15.137Z,1340.0
2022-08-11T09:26:57.509Z,1460.0
2022-08-11T09:32:03.992Z,1550.0
2022-08-11T09:37:10.403Z,1660.0
2022-08-11T09:42:22.998Z,1715.0
2022-08-11T09:47:24.555Z,1805.0
2022-08-11T09:53:34.804Z,1805.0
2022-08-11T09:57:38.425Z,1995.0
2022-08-11T10:02:44.605Z,1985.0
2022-08-11T10:07:51.093Z,1840.0
2022-08-11T10:12:57.503Z,1940.0
2022-08-11T10:18:03.865Z,2005.0
2022-08-11T10:23:34.289Z,2090.0
2022-08-11T10:28:33.492Z,2050.0
2022-08-11T10:33:37.664Z,1935.0
2022-08-11T10:38:29.499Z,2080.0
2022-08-11T10:44:02.435Z,1995.0
2022-08-11T10:48:43.848Z,2130.0
2022-08-11T10:53:50.223Z,2265.0
2022-08-11T10:58:58.544Z,2150.0
2022-08-11T11:04:03.032Z,2220.0
2022-08-11T11:09:09.416Z,2300.0
2022-08-11T11:15:27.934Z,2270.0
2022-08-11T11:19:22.174Z,2200.0
2022-08-11T11:26:14.824Z,2360.0
2022-08-11T11:30:10.035Z,2100.0
2022-08-11T11:35:16.418Z,2145.0
2022-08-11T11:40:30.547Z,2250.0
2022-08-11T11:45:55.991Z,2240.0
2022-08-11T11:50:38.942Z,2245.0
2022-08-11T11:55:45.338Z,2190.0
2022-08-11T12:00:51.844Z,2185.0
2022-08-11T12:05:58.221Z,2230.0
2022-08-11T12:11:04.679Z,2230.0
2022-08-11T12:16:33.231Z,2255.0
2022-08-11T12:21:17.479Z,2185.0
2022-08-11T12:26:27.192Z,2185.0
2022-08-11T12:31:30.447Z,2070.0
2022-08-11T12:36:36.910Z,2245.0
2022-08-11T12:42:07.454Z,2155.0
2022-08-11T12:46:50.359Z,2180.0
2022-08-11T12:52:12.324Z,1995.0
2022-08-11T12:56:53.093Z,2055.0
2022-08-11T13:02:09.542Z,2135.0
2022-08-11T13:07:49.968Z,2205.0
2022-08-11T13:12:22.723Z,2085.0
2022-08-11T13:17:40.203Z,1975.0
2022-08-11T13:22:35.687Z,1870.0
2022-08-11T13:27:42.182Z,1950.0
2022-08-11T13:32:48.451Z,1845.0
2022-08-11T13:38:19.782Z,1825.0
2022-08-11T13:43:01.221Z,1880.0
2022-08-11T13:49:19.764Z,1810.0
2022-08-11T13:53:03.969Z,1660.0
2022-08-11T13:58:40.587Z,1640.0
2022-08-11T14:04:28.795Z,1715.0
2022-08-11T14:08:38.040Z,1670.0
2022-08-11T14:13:41.685Z,1355.0
2022-08-11T14:19:00.023Z,1170.0
2022-08-11T14:24:12.918Z,620.0
2022-08-11T14:28:58.860Z,480.0
2022-08-11T14:34:05.348Z,310.0
2022-08-11T14:39:11.896Z,375.0
2022-08-11T14:44:18.321Z,265.0
2022-08-11T14:49:56.087Z,265.0
2022-08-11T14:54:51.189Z,245.0
2022-08-11T14:59:37.526Z,240.0
2022-08-11T15:04:36.315Z,235.0
2022-08-11T15:10:12.353Z,225.0
2022-08-11T15:14:46.678Z,220.0
2022-08-11T15:20:27.129Z,210.0
2022-08-11T15:25:29.526Z,210.0
2022-08-11T15:30:32.181Z,205.0
2022-08-11T15:35:22.243Z,205.0
2022-08-11T15:40:31.753Z,205.0
2022-08-11T15:45:35.007Z,205.0
2022-08-11T15:50:55.428Z,195.0
2022-08-11T15:55:47.912Z,195.0
2022-08-11T16:00:45.823Z,185.0
2022-08-11T16:05:53.033Z,175.0
2022-08-11T16:10:58.671Z,175.0
2022-08-11T16:16:15.071Z,175.0
2022-08-11T16:27:08.003Z,165.0
2022-08-11T16:31:34.205Z,165.0
2022-08-11T16:36:40.688Z,160.0
2022-08-11T16:41:47.197Z,155.0
2022-08-11T16:46:54.841Z,150.0
2022-08-11T16:52:20.149Z,145.0
2022-08-11T16:57:16.118Z,145.0
2022-08-11T17:02:12.850Z,140.0
2022-08-11T17:07:24.137Z,135.0
2022-08-11T17:12:25.620Z,130.0
2022-08-11T17:17:56.056Z,125.0
2022-08-11T17:22:38.558Z,120.0
2022-08-11T17:27:58.963Z,110.0
2022-08-11T17:32:56.951Z,105.0
2022-08-11T17:37:47.746Z,100.0
2022-08-11T17:43:28.225Z,95.0
2022-08-11T17:48:47.758Z,85.0
2022-08-11T17:54:24.278Z,85.0
2022-08-11T17:59:23.476Z,80.0
2022-08-11T18:04:25.868Z,75.0
2022-08-11T18:09:12.204Z,65.0
2022-08-11T18:14:18.673Z,60.0
2022-08-11T18:19:45.113Z,50.0
2022-08-11T18:24:21.531Z,45.0
2022-08-11T18:29:42.025Z,40.0
2022-08-11T18:35:04.384Z,35.0
2022-08-11T18:40:14.798Z,30.0
2022-08-11T18:44:57.134Z,25.0
2022-08-11T18:50:38.543Z,15.0
2022-08-11T18:55:10.445Z,10.0
2022-08-11T19:00:16.371Z,10.0
2022-08-11T19:06:35.735Z,5.0
2022-08-11T19:10:29.138Z,0.0
2022-08-11T19:15:35.516Z,0.0
2022-08-11T19:20:41.904Z,0.0
2022-08-11T19:25:38.265Z,0.0
2022-08-11T19:30:54.676Z,0.0
2022-08-11T19:39:09.490Z,0.0
2022-08-11T19:41:52.186Z,0.0
2022-08-11T19:46:13.813Z,0.0
2022-08-11T19:51:20.202Z,0.0
2022-08-11T19:56:16.690Z,0.0
2022-08-11T20:01:33.274Z,0.0
2022-08-11T20:06:43.624Z,0.0
2022-08-11T20:11:45.999Z,0.0
2022-08-11T20:16:42.356Z,0.0
2022-08-11T20:21:58.871Z,0.0
2022-08-11T20:27:05.204Z,0.0
2022-08-11T20:32:11.577Z,0.0
2022-08-11T20:37:41.994Z,0.0
2022-08-11T20:42:28.480Z,0.0
2022-08-11T20:48:42.864Z,0.0
2022-08-11T20:52:37.098Z,0.0
2022-08-11T20:58:00.239Z,0.0
2022-08-11T21:02:50.236Z,0.0
2022-08-11T21:07:58.757Z,0.0
2022-08-11T21:13:26.223Z,0.0
2022-08-11T21:18:09.259Z,0.0
2022-08-11T21:23:23.535Z,0.0
2022-08-11T21:28:22.006Z,0.0
2022-08-11T21:33:28.391Z,0.0
2022-08-11T21:38:34.870Z,0.0
2022-08-11T21:43:41.392Z,0.0
2022-08-11T21:48:47.776Z,0.0
2022-08-11T21:53:54.158Z,0.0
2022-08-11T21:59:06.865Z,0.0
2022-08-11T22:04:26.951Z,0.0
2022-08-11T22:09:13.368Z,0.0
2022-08-11T22:14:19.766Z,0.0
2022-08-11T22:19:26.147Z,0.0
2022-08-11T22:24:56.568Z,0.0
2022-08-11T22:29:58.975Z,0.0
2022-08-11T22:34:53.470Z,0.0
2022-08-11T22:40:02.109Z,0.0
2022-08-11T22:44:48.346Z,0.0
2022-08-11T22:50:24.890Z,0.0
2022-08-11T22:55:01.217Z,0.0
2022-08-11T23:00:17.622Z,0.0
2022-08-11T23:05:24.025Z,0.0
2022-08-11T23:10:20.400Z,0.0
2022-08-11T23:16:00.844Z,0.0
2022-08-11T23:21:07.223Z,0.0
2022-08-11T23:25:49.742Z,0.0
2022-08-11T23:31:20.270Z,0.0
2022-08-11T23:36:33.997Z,0.0
2022-08-11T23:41:29.023Z,0.0
2022-08-11T23:46:05.343Z,0.0
2022-08-11T23:51:21.736Z,0.0
2022-08-11T23:56:29.287Z,0.0
